sensor_id;sensor_type;location;lat;lon;timestamp;P1;durP1;ratioP1;P2;durP2;ratioP2
16967;SDS011;64862;54.398;10.126;2022-12-18T00:02:09;33.13;;;16.40;;
16967;SDS011;64862;54.398;10.126;2022-12-18T00:12:14;36.57;;;16.33;;
16967;SDS011;64862;54.398;10.126;2022-12-18T00:22:18;33.07;;;15.13;;
16967;SDS011;64862;54.398;10.126;2022-12-18T00:32:20;32.40;;;16.20;;
16967;SDS011;64862;54.398;10.126;2022-12-18T00:42:24;31.50;;;15.17;;
16967;SDS011;64862;54.398;10.126;2022-12-18T00:52:44;29.87;;;15.03;;
16967;SDS011;64862;54.398;10.126;2022-12-18T01:02:50;29.43;;;14.47;;
16967;SDS011;64862;54.398;10.126;2022-12-18T01:12:53;31.33;;;15.00;;
16967;SDS011;64862;54.398;10.126;2022-12-18T01:22:56;32.23;;;15.17;;
16967;SDS011;64862;54.398;10.126;2022-12-18T01:32:59;28.03;;;14.93;;
16967;SDS011;64862;54.398;10.126;2022-12-18T01:43:02;32.77;;;14.63;;
16967;SDS011;64862;54.398;10.126;2022-12-18T01:53:06;27.93;;;13.87;;
16967;SDS011;64862;54.398;10.126;2022-12-18T02:03:10;30.40;;;14.47;;
16967;SDS011;64862;54.398;10.126;2022-12-18T02:13:14;29.57;;;14.17;;
16967;SDS011;64862;54.398;10.126;2022-12-18T02:23:27;26.27;;;13.33;;
16967;SDS011;64862;54.398;10.126;2022-12-18T02:33:34;26.17;;;13.53;;
16967;SDS011;64862;54.398;10.126;2022-12-18T02:43:38;26.33;;;13.20;;
16967;SDS011;64862;54.398;10.126;2022-12-18T02:53:43;24.97;;;13.10;;
16967;SDS011;64862;54.398;10.126;2022-12-18T03:03:47;29.63;;;12.97;;
16967;SDS011;64862;54.398;10.126;2022-12-18T03:13:54;22.70;;;12.43;;
16967;SDS011;64862;54.398;10.126;2022-12-18T03:23:59;23.97;;;12.90;;
16967;SDS011;64862;54.398;10.126;2022-12-18T03:34:04;27.40;;;12.80;;
16967;SDS011;64862;54.398;10.126;2022-12-18T03:44:17;28.20;;;12.77;;
16967;SDS011;64862;54.398;10.126;2022-12-18T03:54:25;25.47;;;12.63;;
16967;SDS011;64862;54.398;10.126;2022-12-18T04:04:37;24.60;;;11.73;;
16967;SDS011;64862;54.398;10.126;2022-12-18T04:14:42;28.40;;;12.70;;
16967;SDS011;64862;54.398;10.126;2022-12-18T04:24:45;25.80;;;12.47;;
16967;SDS011;64862;54.398;10.126;2022-12-18T04:35:06;25.30;;;12.30;;
16967;SDS011;64862;54.398;10.126;2022-12-18T04:45:12;23.27;;;11.70;;
16967;SDS011;64862;54.398;10.126;2022-12-18T04:55:17;24.33;;;11.73;;
16967;SDS011;64862;54.398;10.126;2022-12-18T05:05:21;23.07;;;11.30;;
16967;SDS011;64862;54.398;10.126;2022-12-18T05:15:25;25.23;;;11.63;;
16967;SDS011;64862;54.398;10.126;2022-12-18T05:25:28;25.30;;;11.73;;
16967;SDS011;64862;54.398;10.126;2022-12-18T05:35:31;24.77;;;11.53;;
16967;SDS011;64862;54.398;10.126;2022-12-18T05:45:36;21.20;;;11.27;;
16967;SDS011;64862;54.398;10.126;2022-12-18T05:55:40;20.63;;;10.00;;
16967;SDS011;64862;54.398;10.126;2022-12-18T06:05:43;23.23;;;10.50;;
16967;SDS011;64862;54.398;10.126;2022-12-18T06:15:47;20.23;;;10.50;;
16967;SDS011;64862;54.398;10.126;2022-12-18T06:25:49;18.47;;;9.33;;
16967;SDS011;64862;54.398;10.126;2022-12-18T06:35:53;19.90;;;9.90;;
16967;SDS011;64862;54.398;10.126;2022-12-18T06:45:58;20.70;;;9.97;;
16967;SDS011;64862;54.398;10.126;2022-12-18T06:56:02;18.77;;;8.97;;
16967;SDS011;64862;54.398;10.126;2022-12-18T07:06:05;25.27;;;9.33;;
16967;SDS011;64862;54.398;10.126;2022-12-18T07:16:10;19.37;;;9.13;;
16967;SDS011;64862;54.398;10.126;2022-12-18T07:26:12;16.97;;;8.50;;
16967;SDS011;64862;54.398;10.126;2022-12-18T07:36:16;18.37;;;8.80;;
16967;SDS011;64862;54.398;10.126;2022-12-18T07:46:19;14.23;;;7.70;;
16967;SDS011;64862;54.398;10.126;2022-12-18T07:56:24;20.17;;;8.20;;
16967;SDS011;64862;54.398;10.126;2022-12-18T08:06:27;16.10;;;7.83;;
16967;SDS011;64862;54.398;10.126;2022-12-18T08:16:33;18.30;;;7.97;;
16967;SDS011;64862;54.398;10.126;2022-12-18T08:26:36;20.60;;;8.17;;
16967;SDS011;64862;54.398;10.126;2022-12-18T08:36:40;17.47;;;7.80;;
16967;SDS011;64862;54.398;10.126;2022-12-18T08:46:44;17.37;;;7.67;;
16967;SDS011;64862;54.398;10.126;2022-12-18T08:56:49;14.53;;;7.53;;
16967;SDS011;64862;54.398;10.126;2022-12-18T09:06:51;13.43;;;7.00;;
16967;SDS011;64862;54.398;10.126;2022-12-18T09:16:58;16.27;;;7.10;;
16967;SDS011;64862;54.398;10.126;2022-12-18T09:27:00;18.00;;;7.30;;
16967;SDS011;64862;54.398;10.126;2022-12-18T09:37:05;16.83;;;7.90;;
16967;SDS011;64862;54.398;10.126;2022-12-18T09:47:09;13.90;;;6.80;;
16967;SDS011;64862;54.398;10.126;2022-12-18T09:57:14;12.32;;;6.32;;
16967;SDS011;64862;54.398;10.126;2022-12-18T10:07:19;12.52;;;6.07;;
16967;SDS011;64862;54.398;10.126;2022-12-18T10:17:28;10.05;;;6.10;;
16967;SDS011;64862;54.398;10.126;2022-12-18T10:27:34;13.77;;;6.57;;
16967;SDS011;64862;54.398;10.126;2022-12-18T10:37:37;11.82;;;6.75;;
16967;SDS011;64862;54.398;10.126;2022-12-18T10:48:00;14.15;;;7.35;;
16967;SDS011;64862;54.398;10.126;2022-12-18T10:58:20;13.32;;;7.90;;
16967;SDS011;64862;54.398;10.126;2022-12-18T11:08:23;15.40;;;8.10;;
16967;SDS011;64862;54.398;10.126;2022-12-18T11:18:27;16.95;;;8.13;;
16967;SDS011;64862;54.398;10.126;2022-12-18T11:28:35;15.23;;;8.10;;
16967;SDS011;64862;54.398;10.126;2022-12-18T11:38:39;16.80;;;8.38;;
16967;SDS011;64862;54.398;10.126;2022-12-18T11:48:43;17.42;;;8.73;;
16967;SDS011;64862;54.398;10.126;2022-12-18T11:58:49;18.40;;;8.38;;
16967;SDS011;64862;54.398;10.126;2022-12-18T12:08:55;17.60;;;8.68;;
16967;SDS011;64862;54.398;10.126;2022-12-18T12:19:10;17.15;;;9.20;;
16967;SDS011;64862;54.398;10.126;2022-12-18T12:29:19;14.75;;;8.95;;
16967;SDS011;64862;54.398;10.126;2022-12-18T12:39:27;17.95;;;9.18;;
16967;SDS011;64862;54.398;10.126;2022-12-18T12:49:30;18.23;;;8.93;;
16967;SDS011;64862;54.398;10.126;2022-12-18T12:59:37;18.63;;;8.57;;
16967;SDS011;64862;54.398;10.126;2022-12-18T13:20:10;19.42;;;9.75;;
16967;SDS011;64862;54.398;10.126;2022-12-18T13:51:02;20.10;;;9.88;;
16967;SDS011;64862;54.398;10.126;2022-12-18T14:01:10;21.52;;;9.98;;
16967;SDS011;64862;54.398;10.126;2022-12-18T14:11:19;20.33;;;10.70;;
16967;SDS011;64862;54.398;10.126;2022-12-18T14:21:23;23.27;;;10.60;;
16967;SDS011;64862;54.398;10.126;2022-12-18T14:31:30;24.17;;;11.17;;
16967;SDS011;64862;54.398;10.126;2022-12-18T14:41:33;23.93;;;10.90;;
16967;SDS011;64862;54.398;10.126;2022-12-18T14:51:36;26.27;;;12.20;;
16967;SDS011;64862;54.398;10.126;2022-12-18T15:01:44;25.98;;;12.23;;
16967;SDS011;64862;54.398;10.126;2022-12-18T15:11:49;30.50;;;12.00;;
16967;SDS011;64862;54.398;10.126;2022-12-18T15:21:53;32.30;;;12.47;;
16967;SDS011;64862;54.398;10.126;2022-12-18T15:31:59;33.13;;;12.57;;
16967;SDS011;64862;54.398;10.126;2022-12-18T15:42:02;31.13;;;13.03;;
16967;SDS011;64862;54.398;10.126;2022-12-18T15:52:23;31.73;;;13.03;;
16967;SDS011;64862;54.398;10.126;2022-12-18T16:02:26;31.97;;;13.67;;
16967;SDS011;64862;54.398;10.126;2022-12-18T16:12:30;37.50;;;14.70;;
16967;SDS011;64862;54.398;10.126;2022-12-18T16:22:32;36.27;;;14.70;;
16967;SDS011;64862;54.398;10.126;2022-12-18T16:32:36;40.77;;;14.97;;
16967;SDS011;64862;54.398;10.126;2022-12-18T16:42:39;47.77;;;16.80;;
16967;SDS011;64862;54.398;10.126;2022-12-18T16:52:42;39.63;;;15.23;;
16967;SDS011;64862;54.398;10.126;2022-12-18T17:02:45;42.23;;;16.10;;
16967;SDS011;64862;54.398;10.126;2022-12-18T17:12:48;43.13;;;16.93;;
16967;SDS011;64862;54.398;10.126;2022-12-18T17:22:51;43.57;;;16.23;;
16967;SDS011;64862;54.398;10.126;2022-12-18T17:32:56;42.50;;;15.03;;
16967;SDS011;64862;54.398;10.126;2022-12-18T17:42:58;40.57;;;15.47;;
16967;SDS011;64862;54.398;10.126;2022-12-18T17:53:02;40.05;;;15.73;;
16967;SDS011;64862;54.398;10.126;2022-12-18T18:03:04;39.73;;;15.77;;
16967;SDS011;64862;54.398;10.126;2022-12-18T18:13:12;36.07;;;15.30;;
16967;SDS011;64862;54.398;10.126;2022-12-18T18:23:35;35.97;;;14.57;;
16967;SDS011;64862;54.398;10.126;2022-12-18T18:33:38;35.70;;;14.47;;
16967;SDS011;64862;54.398;10.126;2022-12-18T18:43:42;35.43;;;14.97;;
16967;SDS011;64862;54.398;10.126;2022-12-18T18:53:46;35.92;;;15.15;;
16967;SDS011;64862;54.398;10.126;2022-12-18T19:03:48;35.73;;;14.60;;
16967;SDS011;64862;54.398;10.126;2022-12-18T19:13:53;34.30;;;14.07;;
16967;SDS011;64862;54.398;10.126;2022-12-18T19:23:55;35.63;;;14.13;;
16967;SDS011;64862;54.398;10.126;2022-12-18T19:33:59;31.55;;;13.90;;
16967;SDS011;64862;54.398;10.126;2022-12-18T19:44:01;40.88;;;16.60;;
16967;SDS011;64862;54.398;10.126;2022-12-18T19:54:05;30.83;;;13.97;;
16967;SDS011;64862;54.398;10.126;2022-12-18T20:04:07;35.15;;;14.50;;
16967;SDS011;64862;54.398;10.126;2022-12-18T20:14:11;29.48;;;13.85;;
16967;SDS011;64862;54.398;10.126;2022-12-18T20:24:13;32.47;;;14.10;;
16967;SDS011;64862;54.398;10.126;2022-12-18T20:34:17;30.52;;;14.25;;
16967;SDS011;64862;54.398;10.126;2022-12-18T20:44:19;32.22;;;14.00;;
16967;SDS011;64862;54.398;10.126;2022-12-18T20:54:24;29.10;;;12.93;;
16967;SDS011;64862;54.398;10.126;2022-12-18T21:04:26;27.47;;;12.23;;
16967;SDS011;64862;54.398;10.126;2022-12-18T21:14:30;26.83;;;12.27;;
16967;SDS011;64862;54.398;10.126;2022-12-18T21:24:33;26.33;;;11.55;;
16967;SDS011;64862;54.398;10.126;2022-12-18T21:34:36;26.38;;;11.90;;
16967;SDS011;64862;54.398;10.126;2022-12-18T21:44:39;25.25;;;11.05;;
16967;SDS011;64862;54.398;10.126;2022-12-18T21:54:42;24.02;;;11.68;;
16967;SDS011;64862;54.398;10.126;2022-12-18T22:04:45;26.92;;;11.80;;
16967;SDS011;64862;54.398;10.126;2022-12-18T22:14:49;26.65;;;12.23;;
16967;SDS011;64862;54.398;10.126;2022-12-18T22:24:51;22.63;;;11.30;;
16967;SDS011;64862;54.398;10.126;2022-12-18T22:34:55;25.83;;;12.43;;
16967;SDS011;64862;54.398;10.126;2022-12-18T22:44:57;27.02;;;13.43;;
16967;SDS011;64862;54.398;10.126;2022-12-18T22:55:01;25.05;;;12.98;;
16967;SDS011;64862;54.398;10.126;2022-12-18T23:05:05;28.73;;;13.57;;
16967;SDS011;64862;54.398;10.126;2022-12-18T23:15:09;27.60;;;13.23;;
16967;SDS011;64862;54.398;10.126;2022-12-18T23:25:11;29.10;;;13.38;;
16967;SDS011;64862;54.398;10.126;2022-12-18T23:35:15;28.02;;;13.00;;
16967;SDS011;64862;54.398;10.126;2022-12-18T23:45:20;32.15;;;13.70;;
16967;SDS011;64862;54.398;10.126;2022-12-18T23:55:23;27.70;;;13.20;;
